Time;durP1;ratioP1;P1;durP2;ratioP2;P2;SDS_P1;SDS_P2;PMS_P1;PMS_P2;Temp;Humidity;BMP_temperature;BMP_pressure;BME280_temperature;BME280_humidity;BME280_pressure;Samples;Min_cycle;Max_cycle;Signal;HPM_P1;HPM_P2
2021/09/15 00:01:13;;;;;;;8.00;7.27;;;28.00;56.70;;;;;;5003767;28;20593;-45
2021/09/15 00:03:39;;;;;;;8.90;7.60;;;28.00;56.60;;;;;;5003299;28;20220;-45
2021/09/15 00:06:05;;;;;;;8.23;7.53;;;28.00;56.70;;;;;;5008184;28;20272;-45
2021/09/15 00:08:31;;;;;;;7.80;7.10;;;28.10;56.30;;;;;;5000695;28;20210;-45
2021/09/15 00:10:57;;;;;;;8.57;7.80;;;28.10;56.30;;;;;;5021805;28;20441;-45
2021/09/15 00:13:23;;;;;;;7.97;7.37;;;28.20;56.20;;;;;;5004886;28;20821;-45
2021/09/15 00:15:48;;;;;;;8.37;7.67;;;28.10;56.30;;;;;;5005972;28;20194;-45
2021/09/15 00:18:14;;;;;;;9.37;8.47;;;28.20;56.70;;;;;;5001962;28;20229;-45
2021/09/15 00:20:39;;;;;;;9.03;8.13;;;28.20;56.20;;;;;;5004888;28;20285;-45
2021/09/15 00:23:05;;;;;;;8.97;7.53;;;28.10;56.40;;;;;;5003771;28;20745;-46
2021/09/15 00:25:31;;;;;;;8.00;7.27;;;27.80;57.10;;;;;;5007797;28;20252;-46
2021/09/15 00:27:57;;;;;;;8.20;7.50;;;27.80;57.30;;;;;;5000442;28;20286;-44
2021/09/15 00:30:22;;;;;;;9.00;8.20;;;27.70;57.80;;;;;;4999461;28;20512;-46
2021/09/15 00:32:48;;;;;;;12.17;8.57;;;27.80;57.40;;;;;;5004101;28;20197;-47
2021/09/15 00:35:14;;;;;;;8.83;7.60;;;27.80;57.10;;;;;;5004786;28;20632;-46
2021/09/15 00:37:39;;;;;;;9.17;8.03;;;27.90;57.00;;;;;;5006489;28;20228;-45
2021/09/15 00:40:06;;;;;;;10.87;7.60;;;27.90;56.70;;;;;;5003654;28;20218;-45
2021/09/15 00:42:32;;;;;;;8.40;7.70;;;27.90;56.70;;;;;;5000627;28;20202;-47
2021/09/15 00:44:58;;;;;;;8.20;7.50;;;27.80;57.30;;;;;;5001572;28;20638;-44
2021/09/15 00:47:23;;;;;;;8.90;8.10;;;27.60;57.90;;;;;;5002238;28;20341;-47
2021/09/15 00:49:49;;;;;;;8.50;7.70;;;27.50;57.80;;;;;;4996521;28;20202;-45
2021/09/15 00:52:15;;;;;;;10.57;8.37;;;27.60;57.80;;;;;;5006488;28;20202;-45
2021/09/15 00:54:40;;;;;;;8.20;7.40;;;27.70;57.70;;;;;;4999389;28;20197;-45
2021/09/15 00:57:06;;;;;;;7.90;7.07;;;27.80;57.60;;;;;;5004864;28;20526;-48
2021/09/15 00:59:32;;;;;;;8.97;8.07;;;27.80;57.60;;;;;;5002542;28;20303;-46
2021/09/15 01:01:58;;;;;;;7.90;7.30;;;27.80;57.90;;;;;;5000534;28;20560;-45
2021/09/15 01:04:23;;;;;;;9.63;8.93;;;27.70;58.00;;;;;;5003013;28;20206;-52
2021/09/15 01:06:49;;;;;;;9.03;8.33;;;27.70;57.80;;;;;;5005832;28;20244;-49
2021/09/15 01:09:15;;;;;;;10.37;7.70;;;27.70;57.90;;;;;;5003402;28;20198;-51
2021/09/15 01:11:42;;;;;;;9.20;8.50;;;27.60;58.60;;;;;;5001182;28;20206;-51
2021/09/15 01:14:09;;;;;;;8.50;7.70;;;27.40;59.10;;;;;;4997817;28;20229;-51
2021/09/15 01:16:50;;;;;;;8.30;7.60;;;27.40;58.90;;;;;;5009232;28;20484;-51
2021/09/15 01:19:16;;;;;;;9.03;8.23;;;27.10;60.00;;;;;;5009341;28;21032;-47
2021/09/15 01:21:42;;;;;;;9.67;8.87;;;27.00;59.60;;;;;;5012084;28;20448;-50
2021/09/15 01:24:08;;;;;;;9.03;8.10;;;26.90;59.70;;;;;;5002890;28;20244;-48
2021/09/15 01:26:35;;;;;;;9.30;8.40;;;26.90;59.70;;;;;;5009306;28;20948;-49
2021/09/15 01:29:00;;;;;;;9.00;8.20;;;27.10;59.30;;;;;;5011162;28;20198;-51
2021/09/15 01:31:26;;;;;;;8.50;7.87;;;27.20;59.20;;;;;;5009442;28;20486;-50
2021/09/15 01:33:51;;;;;;;8.77;8.03;;;27.10;59.10;;;;;;5010117;28;20198;-46
2021/09/15 01:36:17;;;;;;;8.93;8.13;;;27.20;59.20;;;;;;5007616;28;22422;-51
2021/09/15 01:38:43;;;;;;;10.43;9.37;;;27.10;59.50;;;;;;5002902;28;20202;-49
2021/09/15 01:41:08;;;;;;;8.20;7.50;;;27.20;59.40;;;;;;5005369;28;20573;-49
2021/09/15 01:43:34;;;;;;;9.33;7.53;;;27.10;59.30;;;;;;5007368;28;20190;-50
2021/09/15 01:45:59;;;;;;;8.63;7.83;;;27.20;59.00;;;;;;5005018;28;20194;-45
2021/09/15 01:48:25;;;;;;;9.43;8.27;;;27.20;58.80;;;;;;5006908;28;20284;-45
2021/09/15 01:50:50;;;;;;;8.50;7.70;;;27.30;58.60;;;;;;5004461;28;20202;-48
2021/09/15 01:53:16;;;;;;;8.00;7.30;;;27.30;58.80;;;;;;5009368;28;20201;-49
2021/09/15 01:55:42;;;;;;;8.97;8.07;;;27.30;58.50;;;;;;5005611;28;20240;-50
2021/09/15 01:58:10;;;;;;;9.73;8.57;;;27.40;58.60;;;;;;5007077;28;20241;-51
2021/09/15 02:00:36;;;;;;;9.00;8.10;;;27.20;59.20;;;;;;5003365;28;20221;-50
2021/09/15 02:03:02;;;;;;;9.40;8.50;;;27.20;58.70;;;;;;5004269;28;21388;-51
2021/09/15 02:05:28;;;;;;;8.90;8.10;;;27.20;58.80;;;;;;5003098;28;20434;-45
2021/09/15 02:07:53;;;;;;;7.87;7.17;;;27.20;59.10;;;;;;5007360;28;20460;-49
2021/09/15 02:10:19;;;;;;;7.87;7.27;;;27.20;58.80;;;;;;5005440;28;20228;-50
2021/09/15 02:12:44;;;;;;;7.90;7.10;;;27.30;58.60;;;;;;5006841;28;20541;-50
2021/09/15 02:15:12;;;;;;;8.67;7.97;;;27.30;58.60;;;;;;5006225;28;20564;-47
2021/09/15 02:17:38;;;;;;;8.90;8.10;;;27.30;58.60;;;;;;5008395;28;20237;-46
2021/09/15 02:20:06;;;;;;;9.37;8.47;;;27.20;58.60;;;;;;5002843;28;20441;-48
2021/09/15 02:22:32;;;;;;;10.23;9.23;;;27.20;58.70;;;;;;5006315;28;20670;-48
2021/09/15 02:24:57;;;;;;;9.07;8.30;;;27.30;58.60;;;;;;5000556;28;20489;-46
2021/09/15 02:27:23;;;;;;;11.80;8.27;;;27.20;59.20;;;;;;5008317;28;20221;-45
2021/09/15 02:29:48;;;;;;;10.10;7.93;;;26.90;60.00;;;;;;5002708;28;20198;-47
2021/09/15 02:32:14;;;;;;;9.80;8.57;;;26.90;59.60;;;;;;5005345;28;20281;-46
2021/09/15 02:34:39;;;;;;;8.30;7.50;;;27.00;59.50;;;;;;5001878;28;20202;-46
2021/09/15 02:37:05;;;;;;;9.57;8.57;;;27.00;59.30;;;;;;5007459;28;20267;-44
2021/09/15 02:39:31;;;;;;;8.80;8.00;;;27.10;59.00;;;;;;5007113;28;20194;-48
2021/09/15 02:41:57;;;;;;;8.20;7.50;;;27.10;58.90;;;;;;5008171;28;20241;-45
2021/09/15 02:44:22;;;;;;;7.87;7.27;;;27.10;59.00;;;;;;5001951;28;20194;-45
2021/09/15 02:46:48;;;;;;;8.70;8.00;;;27.10;58.70;;;;;;5005974;28;20449;-51
2021/09/15 02:49:13;;;;;;;8.23;7.53;;;27.10;58.70;;;;;;5005771;28;20692;-46
2021/09/15 02:51:39;;;;;;;7.50;6.83;;;27.20;58.50;;;;;;5008047;28;20256;-46
2021/09/15 02:54:04;;;;;;;7.63;6.93;;;27.20;58.50;;;;;;5007832;28;20222;-47
2021/09/15 02:56:31;;;;;;;8.43;7.73;;;27.20;58.30;;;;;;5002330;28;20255;-45
2021/09/15 02:58:56;;;;;;;7.97;7.20;;;27.30;58.30;;;;;;5007281;28;20249;-46
2021/09/15 03:01:22;;;;;;;8.27;7.57;;;27.40;58.00;;;;;;5004917;28;20441;-45
2021/09/15 03:03:48;;;;;;;8.20;7.50;;;27.40;57.90;;;;;;5004707;28;20201;-46
2021/09/15 03:06:13;;;;;;;8.37;7.70;;;27.40;58.00;;;;;;5001759;28;20445;-45
2021/09/15 03:08:39;;;;;;;8.47;7.77;;;27.30;58.00;;;;;;5005494;28;20606;-51
2021/09/15 03:11:05;;;;;;;8.03;7.23;;;27.30;58.00;;;;;;5005465;28;20194;-46
2021/09/15 03:13:30;;;;;;;8.17;7.37;;;27.30;58.00;;;;;;5010933;28;20251;-46
2021/09/15 03:15:56;;;;;;;7.60;6.80;;;27.30;57.90;;;;;;5011813;28;20201;-46
2021/09/15 03:18:21;;;;;;;7.67;7.07;;;27.40;57.80;;;;;;5008923;28;20686;-45
2021/09/15 03:20:47;;;;;;;7.40;6.70;;;27.40;57.70;;;;;;5001527;28;20198;-47
2021/09/15 03:23:13;;;;;;;7.87;7.27;;;27.40;57.70;;;;;;5007897;28;20190;-46
2021/09/15 03:25:38;;;;;;;8.50;7.80;;;27.40;57.70;;;;;;5008860;28;20204;-47
2021/09/15 03:28:04;;;;;;;8.20;7.40;;;27.40;57.60;;;;;;5003351;28;20248;-46
2021/09/15 03:30:29;;;;;;;8.37;7.50;;;27.40;57.60;;;;;;4997251;28;20194;-45
2021/09/15 03:32:55;;;;;;;7.90;7.20;;;27.40;57.50;;;;;;5002333;28;20984;-45
2021/09/15 03:35:20;;;;;;;8.37;7.70;;;27.40;57.60;;;;;;5004968;28;20198;-45
2021/09/15 03:37:46;;;;;;;8.07;7.47;;;27.40;57.70;;;;;;5005032;28;20233;-46
2021/09/15 03:40:12;;;;;;;7.90;7.10;;;27.30;57.70;;;;;;4997360;28;20567;-45
2021/09/15 03:42:37;;;;;;;8.90;8.10;;;27.40;57.50;;;;;;5000395;28;20206;-48
2021/09/15 03:45:04;;;;;;;7.50;7.00;;;27.50;57.30;;;;;;5006895;28;20273;-45
2021/09/15 03:47:30;;;;;;;7.53;6.93;;;27.50;57.30;;;;;;5006186;28;20678;-46
2021/09/15 03:49:55;;;;;;;7.13;6.53;;;27.40;57.40;;;;;;5004217;28;20480;-49
2021/09/15 03:52:21;;;;;;;9.33;7.50;;;27.40;57.50;;;;;;5004366;28;20564;-45
2021/09/15 03:54:46;;;;;;;8.47;7.73;;;27.40;57.60;;;;;;5006339;28;20194;-48
2021/09/15 03:57:12;;;;;;;8.70;7.77;;;27.40;57.60;;;;;;5002280;28;20286;-45
2021/09/15 03:59:38;;;;;;;8.00;7.20;;;27.40;57.70;;;;;;4997035;28;20607;-47
2021/09/15 04:02:03;;;;;;;11.70;7.03;;;27.30;57.70;;;;;;5003295;28;20193;-45
2021/09/15 04:04:29;;;;;;;7.13;6.53;;;27.30;58.20;;;;;;4999124;28;20272;-47
2021/09/15 04:06:55;;;;;;;6.77;6.07;;;27.20;57.70;;;;;;5006331;28;20613;-45
2021/09/15 04:09:21;;;;;;;8.73;6.37;;;27.20;57.90;;;;;;5002508;28;20596;-48
2021/09/15 04:11:47;;;;;;;8.27;7.57;;;27.30;57.70;;;;;;5002637;28;20532;-47
2021/09/15 04:14:12;;;;;;;7.60;6.90;;;27.40;57.60;;;;;;5005103;28;20202;-51
2021/09/15 04:16:38;;;;;;;7.53;6.77;;;27.40;57.20;;;;;;5005888;28;20584;-48
2021/09/15 04:19:04;;;;;;;7.80;7.10;;;27.40;57.20;;;;;;5001236;28;20276;-50
2021/09/15 04:21:29;;;;;;;8.63;6.70;;;27.30;57.50;;;;;;5005466;28;20239;-49
2021/09/15 04:24:11;;;;;;;7.30;6.60;;;27.30;57.50;;;;;;5009470;28;20285;-50
2021/09/15 04:32:05;;;;;;;8.87;8.17;;;26.80;59.40;;;;;;5005543;28;21140;-50
2021/09/15 04:34:31;;;;;;;8.43;7.83;;;26.70;59.80;;;;;;4996819;28;20533;-51
2021/09/15 04:36:56;;;;;;;9.73;8.93;;;26.60;60.10;;;;;;5006676;28;20253;-48
2021/09/15 04:39:22;;;;;;;8.07;7.27;;;26.60;60.50;;;;;;5006659;28;20190;-50
2021/09/15 04:41:48;;;;;;;7.93;7.33;;;26.60;60.70;;;;;;5009489;28;20205;-46
2021/09/15 04:44:13;;;;;;;8.20;7.50;;;26.50;60.20;;;;;;5006620;28;20197;-47
2021/09/15 04:46:39;;;;;;;8.50;7.80;;;26.40;61.00;;;;;;5006213;28;20202;-45
2021/09/15 04:49:04;;;;;;;8.00;7.40;;;26.20;61.90;;;;;;5005684;28;20631;-48
2021/09/15 04:51:30;;;;;;;8.03;7.37;;;26.20;62.10;;;;;;5002645;28;20198;-48
2021/09/15 04:53:55;;;;;;;8.80;7.70;;;26.10;62.00;;;;;;5004428;28;20284;-49
2021/09/15 04:56:21;;;;;;;9.20;8.40;;;26.00;62.70;;;;;;5003672;28;20243;-46
2021/09/15 04:58:46;;;;;;;7.87;7.17;;;25.90;63.50;;;;;;5005157;28;20233;-49
2021/09/15 05:01:12;;;;;;;7.70;7.07;;;25.90;63.30;;;;;;5003601;28;20197;-47
2021/09/15 05:03:38;;;;;;;11.40;8.60;;;25.60;64.10;;;;;;5000269;28;20194;-49
2021/09/15 05:06:03;;;;;;;13.43;7.93;;;25.60;64.30;;;;;;5000328;28;20224;-50
2021/09/15 05:08:29;;;;;;;13.50;7.10;;;25.60;65.40;;;;;;4998964;28;20198;-49
2021/09/15 05:10:54;;;;;;;8.70;7.80;;;25.80;64.60;;;;;;5004328;28;20581;-45
2021/09/15 05:13:20;;;;;;;7.80;7.00;;;25.90;63.80;;;;;;5002067;28;20206;-45
2021/09/15 05:15:45;;;;;;;8.20;7.27;;;26.00;63.00;;;;;;5006778;28;20210;-46
2021/09/15 05:18:11;;;;;;;8.13;7.43;;;26.10;62.20;;;;;;5008774;28;20221;-51
2021/09/15 05:20:37;;;;;;;8.23;7.30;;;26.20;61.90;;;;;;5004748;28;20252;-49
2021/09/15 05:23:03;;;;;;;8.53;7.37;;;26.30;61.50;;;;;;5008172;28;20198;-45
2021/09/15 05:25:28;;;;;;;9.70;8.03;;;26.40;61.20;;;;;;5010300;28;20198;-47
2021/09/15 05:27:54;;;;;;;6.87;6.37;;;26.50;60.90;;;;;;5005182;28;20197;-45
2021/09/15 05:30:20;;;;;;;6.63;6.03;;;26.60;60.80;;;;;;5006501;28;20197;-50
2021/09/15 05:32:46;;;;;;;7.60;6.90;;;26.60;60.40;;;;;;5004467;28;20289;-45
2021/09/15 05:35:12;;;;;;;7.70;7.00;;;26.70;60.20;;;;;;5004590;28;20438;-45
2021/09/15 05:37:38;;;;;;;7.17;6.50;;;26.70;60.00;;;;;;5005557;28;20904;-46
2021/09/15 05:40:06;;;;;;;7.07;6.00;;;26.80;59.80;;;;;;5006829;28;20448;-45
2021/09/15 05:42:31;;;;;;;7.73;7.03;;;26.80;60.00;;;;;;5003231;28;20488;-49
2021/09/15 05:45:03;;;;;;;6.83;6.23;;;26.80;60.00;;;;;;5008399;28;20480;-51
2021/09/15 05:47:29;;;;;;;7.43;6.77;;;26.80;59.50;;;;;;4998306;28;20198;-47
2021/09/15 05:49:59;;;;;;;7.17;6.50;;;26.80;59.60;;;;;;5000754;28;20444;-49
2021/09/15 05:52:25;;;;;;;8.23;6.57;;;26.80;59.50;;;;;;5001176;28;20468;-47
2021/09/15 05:54:50;;;;;;;7.00;6.40;;;26.80;59.50;;;;;;5000560;28;20512;-46
2021/09/15 05:57:16;;;;;;;7.33;6.27;;;26.80;59.60;;;;;;5008275;28;20567;-46
2021/09/15 05:59:42;;;;;;;8.27;6.63;;;26.80;59.60;;;;;;5009091;28;20237;-49
2021/09/15 06:02:07;;;;;;;8.00;7.30;;;26.80;59.70;;;;;;5009540;28;20268;-50
2021/09/15 06:04:33;;;;;;;6.40;5.80;;;26.90;59.80;;;;;;5005072;28;20635;-46
2021/09/15 06:06:58;;;;;;;6.47;5.77;;;26.90;60.80;;;;;;5003924;28;20197;-46
2021/09/15 06:09:24;;;;;;;9.43;5.87;;;26.80;60.20;;;;;;5012198;28;20198;-46
2021/09/15 06:11:49;;;;;;;6.57;6.07;;;26.50;61.10;;;;;;5012203;28;20289;-50
2021/09/15 06:14:15;;;;;;;6.20;5.57;;;26.60;60.90;;;;;;5013214;28;20208;-47
2021/09/15 06:16:41;;;;;;;6.07;5.60;;;26.60;60.80;;;;;;5011697;28;20193;-47
2021/09/15 06:19:06;;;;;;;5.93;5.43;;;26.40;60.80;;;;;;5000180;28;20206;-46
2021/09/15 06:21:32;;;;;;;9.13;6.53;;;26.20;61.60;;;;;;5006876;28;20198;-46
2021/09/15 06:23:57;;;;;;;6.10;5.23;;;26.00;61.90;;;;;;5008384;28;20662;-47
2021/09/15 06:26:25;;;;;;;7.87;6.33;;;25.90;62.50;;;;;;4998892;28;20263;-46
2021/09/15 06:28:54;;;;;;;7.10;5.97;;;25.90;63.10;;;;;;4998224;28;21007;-50
2021/09/15 06:31:21;;;;;;;6.50;5.73;;;25.90;63.20;;;;;;5011583;28;20437;-46
2021/09/15 06:33:47;;;;;;;7.10;6.50;;;25.80;63.40;;;;;;5011532;28;20532;-49
2021/09/15 06:36:14;;;;;;;6.77;6.17;;;25.60;64.10;;;;;;5012766;28;20981;-46
2021/09/15 06:38:41;;;;;;;9.17;6.10;;;25.50;64.90;;;;;;5012093;28;20217;-46
2021/09/15 06:41:07;;;;;;;7.53;6.83;;;25.10;66.60;;;;;;5012182;28;20486;-46
2021/09/15 06:43:32;;;;;;;7.27;6.57;;;25.00;67.60;;;;;;5009933;28;20445;-49
2021/09/15 06:45:58;;;;;;;6.40;5.77;;;25.00;67.40;;;;;;5011017;28;20383;-49
2021/09/15 06:48:24;;;;;;;7.40;6.63;;;25.00;67.20;;;;;;5013282;28;20225;-46
2021/09/15 06:50:49;;;;;;;7.23;6.57;;;24.90;67.50;;;;;;5013629;28;20209;-46
2021/09/15 06:53:15;;;;;;;6.13;5.53;;;24.90;67.20;;;;;;5013306;28;20269;-47
2021/09/15 06:55:40;;;;;;;7.80;6.50;;;24.80;67.60;;;;;;5013833;28;20255;-46
2021/09/15 06:58:06;;;;;;;7.13;6.53;;;24.90;67.50;;;;;;4994820;28;20242;-47
2021/09/15 07:00:31;;;;;;;6.80;6.10;;;24.90;66.90;;;;;;5006445;28;20653;-46
2021/09/15 07:02:57;;;;;;;6.53;5.90;;;24.80;67.50;;;;;;5013310;28;20194;-46
2021/09/15 07:05:23;;;;;;;9.93;6.50;;;24.70;67.60;;;;;;5013736;28;20202;-46
2021/09/15 07:07:49;;;;;;;7.60;6.43;;;24.60;67.80;;;;;;5006883;28;20212;-46
2021/09/15 07:10:15;;;;;;;7.10;6.50;;;24.70;68.20;;;;;;4991971;28;20438;-47
2021/09/15 07:12:40;;;;;;;6.33;5.63;;;24.70;68.30;;;;;;4992740;28;20716;-46
2021/09/15 07:15:08;;;;;;;7.33;6.07;;;24.60;68.50;;;;;;4994205;28;20561;-47
2021/09/15 07:17:34;;;;;;;6.67;5.90;;;24.50;68.60;;;;;;4993693;28;20702;-48
2021/09/15 07:20:00;;;;;;;7.30;6.13;;;24.60;68.20;;;;;;4993264;28;20450;-47
2021/09/15 07:22:25;;;;;;;5.73;5.23;;;24.70;67.90;;;;;;4993944;28;20205;-48
2021/09/15 07:24:51;;;;;;;8.40;6.33;;;24.70;67.40;;;;;;4993156;28;20577;-50
2021/09/15 07:27:18;;;;;;;6.13;5.53;;;24.80;67.10;;;;;;4993434;28;20202;-51
2021/09/15 07:29:44;;;;;;;6.00;5.40;;;24.70;67.70;;;;;;4998454;28;20430;-47
2021/09/15 07:32:10;;;;;;;8.10;6.53;;;24.70;67.40;;;;;;4993644;28;20484;-47
2021/09/15 07:34:35;;;;;;;6.90;5.87;;;24.70;67.00;;;;;;4993226;28;20205;-47
2021/09/15 07:37:01;;;;;;;7.13;6.10;;;24.90;66.80;;;;;;4991856;28;20236;-47
2021/09/15 07:39:26;;;;;;;9.70;6.47;;;24.90;66.20;;;;;;4993007;28;20285;-48
2021/09/15 07:41:52;;;;;;;7.90;6.77;;;24.90;66.20;;;;;;4993015;28;20195;-47
2021/09/15 07:44:18;;;;;;;9.07;6.70;;;25.10;66.50;;;;;;4993125;28;21015;-47
2021/09/15 07:46:43;;;;;;;7.07;6.13;;;25.20;66.90;;;;;;4993050;28;20195;-48
2021/09/15 07:49:09;;;;;;;8.33;7.20;;;25.30;67.20;;;;;;4992612;28;20269;-47
2021/09/15 07:51:34;;;;;;;8.77;7.87;;;25.00;68.70;;;;;;4992897;28;20226;-47
2021/09/15 07:54:01;;;;;;;13.10;8.97;;;24.70;70.40;;;;;;4992772;28;20186;-46
2021/09/15 07:56:27;;;;;;;13.40;9.67;;;24.70;71.00;;;;;;5003692;28;20199;-48
2021/09/15 07:58:53;;;;;;;10.80;8.73;;;24.50;72.00;;;;;;4992274;28;20490;-47
2021/09/15 08:01:21;;;;;;;9.00;7.90;;;24.50;72.20;;;;;;5011523;28;20587;-47
2021/09/15 08:03:46;;;;;;;9.20;7.40;;;24.50;71.80;;;;;;5010300;28;20548;-46
2021/09/15 08:06:12;;;;;;;8.37;7.50;;;24.60;72.40;;;;;;5012462;28;20563;-47
2021/09/15 08:08:38;;;;;;;8.97;6.73;;;24.80;71.20;;;;;;4999584;28;20285;-50
2021/09/15 08:11:03;;;;;;;10.00;8.00;;;24.80;70.70;;;;;;4992714;28;20631;-47
2021/09/15 08:13:29;;;;;;;8.13;7.33;;;24.90;70.50;;;;;;4992557;28;20259;-46
2021/09/15 08:15:55;;;;;;;9.90;6.70;;;25.00;70.00;;;;;;4992878;28;20669;-48
2021/09/15 08:18:20;;;;;;;10.30;6.80;;;25.00;69.70;;;;;;4992144;28;20222;-48
2021/09/15 08:20:46;;;;;;;7.37;6.67;;;24.80;69.80;;;;;;4992409;28;20577;-49
2021/09/15 08:23:20;;;;;;;10.10;8.97;;;24.60;71.20;;;;;;4992142;28;20212;-47
2021/09/15 08:25:46;;;;;;;9.40;8.60;;;24.50;71.80;;;;;;4992651;28;20559;-48
2021/09/15 08:28:12;;;;;;;9.60;8.17;;;24.20;73.50;;;;;;4998303;28;20436;-45
2021/09/15 08:30:38;;;;;;;9.43;8.63;;;23.90;74.80;;;;;;5010355;28;20441;-47
2021/09/15 08:33:03;;;;;;;10.10;9.10;;;24.10;74.40;;;;;;5011926;28;20194;-46
2021/09/15 08:35:30;;;;;;;9.27;8.37;;;24.30;73.80;;;;;;5012122;28;20244;-47
2021/09/15 08:37:56;;;;;;;10.53;9.20;;;24.50;73.50;;;;;;5011560;28;20288;-47
2021/09/15 08:40:22;;;;;;;8.67;7.87;;;24.60;73.30;;;;;;5009852;28;20886;-45
2021/09/15 08:42:47;;;;;;;9.60;8.60;;;24.60;72.60;;;;;;5011517;28;20508;-46
2021/09/15 08:45:13;;;;;;;9.90;7.70;;;24.70;72.00;;;;;;5012297;28;20272;-45
2021/09/15 08:47:44;;;;;;;7.47;6.77;;;24.90;71.50;;;;;;5011031;28;20198;-46
2021/09/15 08:50:11;;;;;;;7.07;6.40;;;24.90;70.40;;;;;;5011672;28;20189;-46
2021/09/15 08:52:38;;;;;;;8.67;6.10;;;25.00;69.50;;;;;;5011270;28;20506;-46
2021/09/15 08:55:04;;;;;;;8.03;6.93;;;24.80;70.10;;;;;;5011787;28;20476;-46
2021/09/15 08:57:30;;;;;;;7.77;7.07;;;24.90;70.20;;;;;;4995543;28;20484;-46
2021/09/15 08:59:56;;;;;;;17.93;6.60;;;24.70;71.10;;;;;;4998064;28;20846;-47
2021/09/15 09:02:22;;;;;;;7.30;5.80;;;24.60;72.20;;;;;;5011881;28;20428;-46
2021/09/15 09:05:00;;;;;;;6.57;5.73;;;24.30;71.40;;;;;;5011318;28;20193;-46
2021/09/15 09:07:27;;;;;;;9.53;5.43;;;24.20;72.50;;;;;;5008819;28;20454;-47
2021/09/15 09:09:55;;;;;;;8.10;6.60;;;24.30;72.40;;;;;;4991263;28;20433;-47
2021/09/15 09:12:25;;;;;;;8.63;6.37;;;24.40;71.60;;;;;;4992098;28;20430;-46
2021/09/15 09:14:53;;;;;;;8.70;6.60;;;24.60;71.00;;;;;;4991536;28;20557;-46
2021/09/15 09:17:33;;;;;;;6.63;5.67;;;24.60;70.90;;;;;;4991681;28;20581;-46
2021/09/15 09:20:20;;;;;;;8.10;5.40;;;24.60;70.70;;;;;;4991624;28;20433;-48
2021/09/15 09:23:07;;;;;;;6.87;5.33;;;24.50;71.30;;;;;;4998692;28;20440;-46
2021/09/15 09:25:38;;;;;;;9.33;5.83;;;24.30;71.70;;;;;;5011283;28;20999;-46
2021/09/15 09:28:21;;;;;;;5.80;5.23;;;24.30;71.60;;;;;;5010976;28;20471;-48
2021/09/15 09:30:49;;;;;;;9.90;5.17;;;24.30;71.20;;;;;;5011340;28;20459;-47
2021/09/15 09:33:15;;;;;;;4.97;4.47;;;24.40;70.20;;;;;;5011583;28;20425;-47
2021/09/15 09:35:48;;;;;;;6.80;5.17;;;24.30;70.00;;;;;;5012041;28;21006;-45
2021/09/15 09:38:25;;;;;;;6.87;4.47;;;24.20;70.00;;;;;;5014730;28;20233;-46
2021/09/15 09:41:02;;;;;;;5.30;4.80;;;24.00;69.80;;;;;;5014833;28;20535;-46
2021/09/15 09:43:31;;;;;;;6.03;4.30;;;23.60;69.20;;;;;;5014542;28;20936;-46
2021/09/15 09:45:57;;;;;;;6.33;3.70;;;23.50;70.20;;;;;;5015353;28;20450;-45
2021/09/15 09:48:45;;;;;;;5.97;4.27;;;23.40;70.20;;;;;;5014482;28;20857;-45
2021/09/15 09:51:25;;;;;;;4.10;3.80;;;23.50;70.70;;;;;;5014318;28;20321;-47
2021/09/15 09:54:23;;;;;;;5.83;4.77;;;23.70;70.50;;;;;;5014386;28;20448;-45
2021/09/15 09:56:51;;;;;;;5.33;4.20;;;23.60;70.80;;;;;;5013797;28;20447;-46
2021/09/15 09:59:18;;;;;;;5.33;4.33;;;23.70;71.30;;;;;;5014212;28;20456;-46
2021/09/15 10:01:49;;;;;;;5.97;5.00;;;23.60;71.30;;;;;;5014807;28;20441;-45
2021/09/15 10:04:15;;;;;;;5.50;4.60;;;23.60;71.70;;;;;;5014282;28;20904;-46
2021/09/15 10:06:43;;;;;;;6.77;4.93;;;23.70;71.70;;;;;;5014836;28;20436;-46
2021/09/15 10:09:10;;;;;;;6.63;4.77;;;23.80;71.20;;;;;;4997375;28;20553;-47
2021/09/15 10:11:36;;;;;;;5.33;4.47;;;23.70;71.10;;;;;;4994949;28;20437;-45
2021/09/15 10:14:03;;;;;;;4.63;4.23;;;23.70;71.60;;;;;;4994615;28;20918;-46
2021/09/15 10:16:31;;;;;;;5.93;4.70;;;23.80;72.10;;;;;;4993586;28;20433;-47
2021/09/15 10:19:04;;;;;;;5.47;4.67;;;24.00;71.90;;;;;;4994524;28;20534;-45
2021/09/15 10:21:32;;;;;;;5.87;4.50;;;24.10;71.00;;;;;;4994715;28;20449;-45
2021/09/15 10:23:58;;;;;;;6.50;5.00;;;24.10;71.10;;;;;;4994254;28;20430;-45
2021/09/15 10:26:28;;;;;;;5.07;4.43;;;24.10;70.80;;;;;;4995131;28;20473;-45
2021/09/15 10:29:13;;;;;;;4.63;4.23;;;24.20;71.30;;;;;;4994344;28;20511;-46
2021/09/15 10:32:10;;;;;;;5.40;4.90;;;24.30;71.50;;;;;;4994427;28;20496;-45
2021/09/15 10:34:38;;;;;;;5.03;4.53;;;24.50;71.70;;;;;;4994056;28;20441;-45
2021/09/15 10:37:05;;;;;;;6.33;4.57;;;24.50;71.60;;;;;;4994619;28;20481;-45
2021/09/15 10:39:31;;;;;;;7.23;5.00;;;24.40;71.80;;;;;;5000931;28;20429;-46
2021/09/15 10:41:57;;;;;;;6.03;5.43;;;24.50;71.10;;;;;;5012600;28;20437;-45
2021/09/15 10:44:23;;;;;;;5.90;5.03;;;24.60;71.40;;;;;;5013402;28;20422;-46
2021/09/15 10:46:49;;;;;;;6.57;5.23;;;24.50;70.90;;;;;;5013399;28;20436;-45
2021/09/15 10:49:23;;;;;;;6.30;4.67;;;24.50;70.50;;;;;;5012826;28;20532;-46
2021/09/15 10:52:10;;;;;;;7.43;5.50;;;24.70;71.20;;;;;;5014297;28;20428;-46
2021/09/15 10:54:42;;;;;;;5.03;4.53;;;24.80;70.60;;;;;;5013141;28;20472;-46
2021/09/15 10:57:15;;;;;;;6.60;4.20;;;24.80;69.80;;;;;;5003157;28;20477;-47
2021/09/15 11:00:21;;;;;;;6.40;4.20;;;24.80;69.80;;;;;;4998889;28;20477;-45
2021/09/15 11:02:49;;;;;;;6.97;5.20;;;24.90;69.80;;;;;;5013056;28;20986;-45
2021/09/15 11:05:26;;;;;;;5.17;4.60;;;24.90;69.70;;;;;;5013720;28;20653;-46
2021/09/15 11:07:57;;;;;;;5.70;5.20;;;24.90;70.10;;;;;;5005968;28;20925;-49
2021/09/15 11:10:32;;;;;;;6.53;5.30;;;25.00;69.80;;;;;;4993315;28;20516;-45
2021/09/15 11:12:58;;;;;;;5.67;5.27;;;25.00;69.50;;;;;;5001339;28;20502;-46
2021/09/15 11:15:32;;;;;;;6.57;5.43;;;25.10;69.10;;;;;;5013631;28;20425;-45
2021/09/15 11:17:58;;;;;;;5.17;4.60;;;25.10;69.50;;;;;;5013185;28;20576;-47
2021/09/15 11:20:26;;;;;;;6.27;5.30;;;25.00;69.30;;;;;;5013146;28;20527;-46
2021/09/15 11:22:52;;;;;;;6.03;5.00;;;25.10;70.10;;;;;;5013139;28;20206;-45
2021/09/15 11:25:24;;;;;;;6.23;4.53;;;25.10;69.20;;;;;;5013165;28;21301;-45
2021/09/15 11:28:09;;;;;;;8.37;5.57;;;24.80;70.20;;;;;;5012818;28;20433;-45
2021/09/15 11:30:37;;;;;;;5.80;5.13;;;25.00;69.50;;;;;;5012840;28;20453;-48
2021/09/15 11:33:03;;;;;;;8.53;4.57;;;25.00;69.80;;;;;;5012801;28;20760;-45
2021/09/15 11:35:33;;;;;;;6.67;5.30;;;25.00;69.60;;;;;;5011596;28;20440;-47
2021/09/15 11:37:59;;;;;;;5.80;5.03;;;25.00;69.80;;;;;;5012589;28;20312;-48
2021/09/15 11:40:30;;;;;;;5.20;4.80;;;25.00;69.40;;;;;;5012839;28;20550;-45
2021/09/15 11:42:56;;;;;;;5.30;4.90;;;25.10;69.50;;;;;;5012420;28;20197;-45
2021/09/15 11:45:23;;;;;;;5.13;4.73;;;25.30;69.60;;;;;;5005637;28;20968;-46
2021/09/15 11:47:56;;;;;;;5.20;4.70;;;25.10;69.40;;;;;;4992731;28;20495;-46
2021/09/15 11:50:28;;;;;;;6.70;5.47;;;25.00;69.50;;;;;;4992892;28;20452;-46
2021/09/15 11:53:01;;;;;;;7.93;5.40;;;25.20;69.30;;;;;;4992814;28;20430;-45
2021/09/15 11:55:29;;;;;;;6.00;5.33;;;25.30;68.50;;;;;;5001045;28;20433;-45
2021/09/15 11:58:00;;;;;;;7.37;5.10;;;25.20;68.50;;;;;;4994915;28;20965;-45
2021/09/15 12:00:30;;;;;;;5.33;4.83;;;25.00;68.80;;;;;;5004583;28;20433;-49
2021/09/15 12:02:59;;;;;;;8.90;5.93;;;25.00;70.10;;;;;;5010792;28;20760;-46
2021/09/15 12:05:26;;;;;;;6.13;4.20;;;25.00;69.90;;;;;;5012822;28;20437;-45
2021/09/15 12:07:52;;;;;;;6.40;5.53;;;24.90;70.10;;;;;;5006006;28;20449;-47
2021/09/15 12:10:19;;;;;;;6.13;5.47;;;24.90;70.30;;;;;;4992705;28;20442;-48
2021/09/15 12:12:45;;;;;;;6.00;5.40;;;24.70;71.30;;;;;;4992832;28;20208;-45
2021/09/15 12:15:11;;;;;;;6.30;5.70;;;24.60;72.20;;;;;;4992887;28;20914;-46
2021/09/15 12:17:37;;;;;;;6.10;5.50;;;24.70;72.40;;;;;;4992274;28;20493;-46
2021/09/15 12:20:18;;;;;;;5.67;5.17;;;24.80;71.30;;;;;;4992364;28;20201;-50
2021/09/15 12:22:43;;;;;;;6.40;5.00;;;24.70;72.20;;;;;;4992420;28;20429;-46
2021/09/15 12:25:11;;;;;;;5.50;5.00;;;24.60;71.90;;;;;;4992880;28;20433;-47
2021/09/15 12:27:39;;;;;;;7.50;5.30;;;24.70;72.40;;;;;;4990388;28;21045;-46
2021/09/15 12:30:10;;;;;;;5.57;5.03;;;24.90;71.40;;;;;;4992239;28;20445;-45
2021/09/15 12:32:38;;;;;;;5.60;4.97;;;25.00;71.20;;;;;;4992241;28;20824;-50
2021/09/15 12:35:33;;;;;;;8.00;5.90;;;25.10;71.00;;;;;;4992872;28;20798;-46
2021/09/15 12:38:05;;;;;;;6.73;5.10;;;24.80;71.60;;;;;;4991859;28;20478;-47
2021/09/15 12:40:32;;;;;;;5.60;5.13;;;24.70;71.80;;;;;;5007477;28;20439;-46
2021/09/15 12:43:00;;;;;;;6.90;4.80;;;24.50;72.30;;;;;;5011628;28;20429;-49
2021/09/15 12:45:26;;;;;;;6.63;5.50;;;24.80;71.80;;;;;;5011986;28;20924;-45
2021/09/15 12:47:52;;;;;;;6.27;5.77;;;25.00;71.00;;;;;;5011677;28;20429;-45
2021/09/15 12:50:22;;;;;;;10.03;5.77;;;25.20;70.40;;;;;;5011726;28;21352;-46
2021/09/15 12:53:10;;;;;;;5.40;4.60;;;25.40;70.00;;;;;;5011313;28;20251;-45